createdAt,value
2022-11-02T00:00:47.934Z,100.00
2022-11-02T00:03:14.559Z,100.00
2022-11-02T00:05:41.239Z,100.00
2022-11-02T00:08:07.736Z,100.00
2022-11-02T00:10:34.271Z,100.00
2022-11-02T00:13:00.898Z,100.00
2022-11-02T00:15:31.539Z,100.00
2022-11-02T00:18:09.125Z,100.00
2022-11-02T00:20:37.278Z,100.00
2022-11-02T00:23:07.617Z,100.00
2022-11-02T00:25:34.698Z,100.00
2022-11-02T00:28:01.232Z,100.00
2022-11-02T00:30:27.787Z,100.00
2022-11-02T00:32:54.289Z,100.00
2022-11-02T00:35:20.779Z,100.00
2022-11-02T00:37:47.280Z,100.00
2022-11-02T00:40:14.713Z,100.00
2022-11-02T00:42:41.276Z,100.00
2022-11-02T00:45:08.483Z,100.00
2022-11-02T00:47:35.121Z,100.00
2022-11-02T00:50:01.754Z,100.00
2022-11-02T00:52:28.285Z,100.00
2022-11-02T00:54:54.978Z,100.00
2022-11-02T00:57:21.468Z,100.00
2022-11-02T00:59:48.043Z,100.00
2022-11-02T01:02:14.658Z,100.00
2022-11-02T01:04:41.349Z,100.00
2022-11-02T01:07:07.928Z,100.00
2022-11-02T01:09:35.067Z,100.00
2022-11-02T01:12:01.620Z,100.00
2022-11-02T01:14:28.267Z,100.00
2022-11-02T01:16:57.804Z,100.00
2022-11-02T01:19:25.118Z,100.00
2022-11-02T01:21:51.635Z,100.00
2022-11-02T01:24:18.194Z,100.00
2022-11-02T01:26:44.723Z,100.00
2022-11-02T01:29:11.341Z,100.00
2022-11-02T01:31:37.849Z,100.00
2022-11-02T01:34:04.338Z,100.00
2022-11-02T01:36:30.866Z,100.00
2022-11-02T01:38:57.420Z,100.00
2022-11-02T01:41:23.938Z,100.00
2022-11-02T01:43:54.399Z,100.00
2022-11-02T01:46:28.366Z,100.00
2022-11-02T01:49:09.409Z,100.00
2022-11-02T01:51:45.443Z,100.00
2022-11-02T01:54:18.998Z,100.00
2022-11-02T01:56:49.209Z,100.00
2022-11-02T01:59:20.424Z,100.00
2022-11-02T02:01:47.679Z,100.00
2022-11-02T02:04:15.222Z,100.00
2022-11-02T02:06:42.627Z,100.00
2022-11-02T02:09:10.282Z,100.00
2022-11-02T02:11:39.271Z,100.00
2022-11-02T02:14:14.493Z,100.00
2022-11-02T02:17:21.079Z,100.00
2022-11-02T02:20:01.372Z,100.00
2022-11-02T02:22:36.693Z,100.00
2022-11-02T02:25:29.608Z,100.00
2022-11-02T02:28:31.103Z,100.00
2022-11-02T02:31:09.219Z,100.00
2022-11-02T02:33:44.415Z,100.00
2022-11-02T02:36:40.894Z,100.00
2022-11-02T02:39:28.066Z,100.00
2022-11-02T02:42:17.444Z,100.00
2022-11-02T02:44:52.789Z,100.00
2022-11-02T02:47:24.726Z,100.00
2022-11-02T02:49:56.777Z,100.00
2022-11-02T02:52:27.922Z,100.00
2022-11-02T02:54:59.436Z,100.00
2022-11-02T02:57:30.373Z,100.00
2022-11-02T02:59:57.127Z,100.00
2022-11-02T03:02:28.852Z,100.00
2022-11-02T03:04:55.781Z,100.00
2022-11-02T03:07:34.376Z,100.00
2022-11-02T03:10:07.025Z,100.00
2022-11-02T03:12:44.519Z,100.00
2022-11-02T03:15:27.053Z,100.00
2022-11-02T03:18:10.253Z,100.00
2022-11-02T03:20:49.539Z,100.00
2022-11-02T03:23:31.679Z,100.00
2022-11-02T03:26:07.142Z,100.00
2022-11-02T03:28:39.572Z,100.00
2022-11-02T03:31:30.338Z,100.00
2022-11-02T03:34:31.314Z,100.00
2022-11-02T03:37:11.530Z,100.00
2022-11-02T03:39:43.633Z,100.00
2022-11-02T03:42:12.894Z,100.00
2022-11-02T03:44:40.313Z,100.00
2022-11-02T03:47:11.378Z,100.00
2022-11-02T03:49:41.936Z,100.00
2022-11-02T03:52:14.804Z,100.00
2022-11-02T03:54:58.141Z,100.00
2022-11-02T03:57:33.188Z,100.00
2022-11-02T04:00:19.992Z,100.00
2022-11-02T04:02:50.364Z,100.00
2022-11-02T04:05:17.474Z,100.00
2022-11-02T04:08:07.618Z,100.00
2022-11-02T04:10:34.886Z,100.00
2022-11-02T04:13:19.834Z,100.00
2022-11-02T04:15:46.361Z,100.00
2022-11-02T04:18:31.466Z,100.00
2022-11-02T04:20:57.998Z,100.00
2022-11-02T04:23:43.079Z,100.00
2022-11-02T04:26:09.599Z,100.00
2022-11-02T04:28:36.214Z,100.00
2022-11-02T04:31:02.760Z,100.00
2022-11-02T04:33:35.304Z,100.00
2022-11-02T04:36:03.530Z,100.00
2022-11-02T04:38:42.571Z,100.00
2022-11-02T04:41:30.171Z,100.00
2022-11-02T04:43:57.181Z,100.00
2022-11-02T04:46:26.041Z,100.00
2022-11-02T04:48:52.900Z,100.00
2022-11-02T04:51:23.549Z,100.00
2022-11-02T04:53:51.890Z,100.00
2022-11-02T04:56:18.427Z,100.00
2022-11-02T04:58:52.081Z,100.00
2022-11-02T05:01:20.183Z,100.00
2022-11-02T05:03:48.861Z,100.00
2022-11-02T05:06:16.620Z,100.00
2022-11-02T05:08:43.365Z,100.00
2022-11-02T05:11:10.886Z,100.00
2022-11-02T05:13:39.499Z,100.00
2022-11-02T05:16:06.958Z,100.00
2022-11-02T05:18:33.694Z,100.00
2022-11-02T05:21:02.554Z,100.00
2022-11-02T05:23:29.776Z,100.00
2022-11-02T05:25:58.540Z,100.00
2022-11-02T05:28:26.391Z,100.00
2022-11-02T05:30:53.776Z,100.00
2022-11-02T05:33:21.276Z,100.00
2022-11-02T05:35:47.913Z,100.00
2022-11-02T05:38:14.547Z,100.00
2022-11-02T05:40:41.762Z,100.00
2022-11-02T05:43:09.618Z,100.00
2022-11-02T05:45:37.095Z,100.00
2022-11-02T05:48:06.758Z,100.00
2022-11-02T05:50:33.495Z,100.00
2022-11-02T05:53:00.101Z,100.00
2022-11-02T05:55:27.105Z,100.00
2022-11-02T05:57:55.218Z,100.00
2022-11-02T06:00:22.812Z,100.00
2022-11-02T06:02:55.153Z,100.00
2022-11-02T06:05:21.695Z,100.00
2022-11-02T06:07:48.265Z,100.00
2022-11-02T06:10:14.941Z,100.00
2022-11-02T06:12:41.535Z,100.00
2022-11-02T06:15:08.698Z,100.00
2022-11-02T06:17:39.702Z,100.00
2022-11-02T06:20:07.751Z,100.00
2022-11-02T06:22:44.081Z,100.00
2022-11-02T06:25:10.980Z,100.00
2022-11-02T06:27:40.923Z,100.00
2022-11-02T06:30:10.504Z,100.00
2022-11-02T06:32:37.038Z,100.00
2022-11-02T06:35:03.876Z,100.00
2022-11-02T06:37:34.025Z,100.00
2022-11-02T06:40:00.891Z,100.00
2022-11-02T06:42:27.402Z,100.00
2022-11-02T06:44:54.016Z,100.00
2022-11-02T06:47:20.585Z,100.00
2022-11-02T06:49:47.138Z,100.00
2022-11-02T06:52:13.765Z,100.00
2022-11-02T06:54:40.238Z,100.00
2022-11-02T06:57:06.851Z,100.00
2022-11-02T06:59:33.359Z,100.00
2022-11-02T07:02:00.088Z,100.00
2022-11-02T07:04:26.651Z,100.00
2022-11-02T07:06:53.182Z,100.00
2022-11-02T07:09:19.671Z,100.00
2022-11-02T07:11:46.182Z,100.00
2022-11-02T07:14:12.671Z,100.00
2022-11-02T07:16:39.207Z,100.00
2022-11-02T07:19:05.789Z,100.00
2022-11-02T07:21:32.399Z,100.00
2022-11-02T07:23:59.139Z,100.00
2022-11-02T07:26:26.874Z,100.00
2022-11-02T07:28:58.314Z,100.00
2022-11-02T07:31:25.856Z,100.00
2022-11-02T07:33:52.398Z,100.00
2022-11-02T07:36:18.954Z,100.00
2022-11-02T07:38:45.809Z,100.00
2022-11-02T07:41:12.284Z,100.00
2022-11-02T07:43:42.987Z,100.00
2022-11-02T07:46:11.591Z,100.00
2022-11-02T07:48:38.296Z,100.00
2022-11-02T07:51:05.827Z,100.00
2022-11-02T07:53:32.621Z,100.00
2022-11-02T07:56:02.672Z,100.00
2022-11-02T07:58:29.525Z,100.00
2022-11-02T08:00:59.966Z,100.00
2022-11-02T08:03:27.730Z,100.00
2022-11-02T08:05:54.692Z,100.00
2022-11-02T08:08:22.942Z,100.00
2022-11-02T08:10:51.823Z,100.00
2022-11-02T08:13:23.857Z,100.00
2022-11-02T08:15:52.098Z,100.00
2022-11-02T08:18:21.317Z,100.00
2022-11-02T08:20:48.669Z,100.00
2022-11-02T08:23:17.536Z,100.00
2022-11-02T08:25:45.845Z,100.00
2022-11-02T08:28:21.372Z,100.00
2022-11-02T08:30:48.008Z,100.00
2022-11-02T08:33:16.749Z,100.00
2022-11-02T08:35:45.061Z,100.00
2022-11-02T08:38:12.448Z,100.00
2022-11-02T08:40:39.405Z,100.00
2022-11-02T08:43:11.046Z,100.00
2022-11-02T08:46:08.901Z,100.00
2022-11-02T08:48:27.452Z,100.00
2022-11-02T08:50:54.228Z,100.00
2022-11-02T08:53:20.807Z,100.00
2022-11-02T08:55:47.325Z,100.00
2022-11-02T08:58:13.846Z,100.00
2022-11-02T09:00:40.457Z,100.00
2022-11-02T09:03:15.518Z,100.00
2022-11-02T09:05:44.196Z,100.00
2022-11-02T09:08:18.151Z,100.00
2022-11-02T09:10:50.448Z,100.00
2022-11-02T09:13:25.344Z,100.00
2022-11-02T09:15:54.290Z,100.00
2022-11-02T09:18:21.276Z,100.00
2022-11-02T09:20:48.758Z,99.46
2022-11-02T09:23:19.634Z,100.00
2022-11-02T09:25:46.470Z,99.54
2022-11-02T09:28:15.046Z,99.08
2022-11-02T09:30:42.008Z,100.00
2022-11-02T09:33:08.888Z,100.00
2022-11-02T09:35:38.247Z,100.00
2022-11-02T09:38:05.296Z,100.00
2022-11-02T09:40:38.977Z,99.71
2022-11-02T09:43:08.629Z,99.96
2022-11-02T09:45:51.831Z,97.46
2022-11-02T09:48:44.379Z,97.00
2022-11-02T09:51:15.407Z,98.47
2022-11-02T09:53:56.878Z,97.88
2022-11-02T09:56:23.787Z,95.34
2022-11-02T09:59:02.677Z,94.47
2022-11-02T10:01:40.919Z,95.74
2022-11-02T10:04:28.878Z,92.75
2022-11-02T10:07:38.056Z,92.51
2022-11-02T10:10:16.866Z,93.56
2022-11-02T10:13:14.310Z,95.07
2022-11-02T10:15:55.862Z,95.14
2022-11-02T10:18:26.517Z,94.86
2022-11-02T10:21:05.346Z,94.32
2022-11-02T10:23:31.902Z,95.42
2022-11-02T10:26:00.825Z,95.12
2022-11-02T10:28:32.708Z,94.84
2022-11-02T10:31:01.399Z,95.10
2022-11-02T10:33:29.726Z,96.27
2022-11-02T10:36:17.575Z,97.00
2022-11-02T10:38:53.820Z,95.49
2022-11-02T10:41:49.758Z,94.22
2022-11-02T10:44:37.697Z,92.94
2022-11-02T10:47:20.344Z,93.39
2022-11-02T10:50:31.146Z,93.57
2022-11-02T10:53:20.367Z,94.18
2022-11-02T10:55:52.662Z,93.56
2022-11-02T10:58:21.891Z,91.34
2022-11-02T11:00:51.204Z,91.32
2022-11-02T11:03:19.313Z,92.70
2022-11-02T11:05:57.470Z,92.31
2022-11-02T11:08:35.552Z,90.52
2022-11-02T11:11:13.782Z,89.99
2022-11-02T11:16:44.837Z,89.54
2022-11-02T11:19:38.573Z,88.80
2022-11-02T11:22:35.144Z,87.96
2022-11-02T11:25:10.568Z,88.03
2022-11-02T11:27:57.541Z,89.00
2022-11-02T11:33:23.193Z,91.37
2022-11-02T11:35:51.184Z,90.74
2022-11-02T11:38:27.236Z,90.00
2022-11-02T11:40:57.560Z,89.30
2022-11-02T11:43:33.987Z,90.50
2022-11-02T11:46:06.576Z,90.88
2022-11-02T11:48:40.835Z,92.21
2022-11-02T11:51:25.394Z,91.79
2022-11-02T11:54:17.872Z,91.88
2022-11-02T11:56:44.619Z,90.34
2022-11-02T11:59:24.088Z,87.80
2022-11-02T12:01:56.002Z,88.73
2022-11-02T12:04:36.361Z,89.17
2022-11-02T12:07:23.974Z,88.04
2022-11-02T12:09:53.664Z,88.97
2022-11-02T12:12:32.538Z,89.16
2022-11-02T12:15:22.675Z,89.04
2022-11-02T12:18:07.658Z,87.30
2022-11-02T12:20:48.714Z,87.46
2022-11-02T12:23:33.927Z,87.84
2022-11-02T12:26:22.127Z,85.78
2022-11-02T12:29:03.627Z,87.57
2022-11-02T12:31:43.924Z,87.47
2022-11-02T12:34:24.195Z,87.78
2022-11-02T12:40:11.097Z,87.20
2022-11-02T12:42:51.795Z,87.43
2022-11-02T12:45:48.374Z,87.56
2022-11-02T12:48:25.476Z,86.96
2022-11-02T12:51:05.263Z,88.22
2022-11-02T12:53:46.086Z,87.09
2022-11-02T12:56:25.189Z,87.23
2022-11-02T12:58:52.197Z,88.26
2022-11-02T13:01:31.758Z,86.02
2022-11-02T13:04:27.931Z,83.38
2022-11-02T13:07:10.031Z,84.19
2022-11-02T13:09:41.266Z,81.03
2022-11-02T13:12:14.635Z,79.73
2022-11-02T13:14:47.392Z,79.57
2022-11-02T13:17:28.594Z,79.14
2022-11-02T13:20:03.741Z,80.48
2022-11-02T13:22:35.473Z,81.77
2022-11-02T13:25:42.543Z,83.15
2022-11-02T13:28:16.463Z,84.22
2022-11-02T13:30:43.704Z,84.87
2022-11-02T13:33:26.767Z,85.38
2022-11-02T13:35:54.378Z,84.68
2022-11-02T13:38:42.897Z,84.70
2022-11-02T13:41:50.235Z,85.18
2022-11-02T13:44:41.710Z,85.50
2022-11-02T13:47:33.680Z,86.13
2022-11-02T13:50:02.120Z,86.48
2022-11-02T13:52:39.461Z,87.34
2022-11-02T13:55:09.695Z,86.32
2022-11-02T13:57:36.140Z,86.02
2022-11-02T14:00:07.486Z,86.05
2022-11-02T14:03:03.628Z,86.76
2022-11-02T14:05:54.131Z,85.06
2022-11-02T14:08:26.761Z,84.92
2022-11-02T14:11:11.397Z,85.25
2022-11-02T14:13:59.109Z,85.30
2022-11-02T14:16:46.618Z,84.71
2022-11-02T14:19:19.288Z,85.48
2022-11-02T14:21:49.849Z,85.12
2022-11-02T14:24:34.690Z,84.55
2022-11-02T14:27:06.766Z,85.10
2022-11-02T14:29:42.234Z,84.11
2022-11-02T14:32:20.743Z,83.42
2022-11-02T14:35:16.616Z,82.09
2022-11-02T14:37:55.054Z,80.44
2022-11-02T14:40:41.921Z,81.81
2022-11-02T14:43:30.470Z,80.81
2022-11-02T14:46:28.286Z,81.33
2022-11-02T14:48:58.493Z,79.87
2022-11-02T14:51:34.088Z,80.49
2022-11-02T14:54:30.514Z,79.84
2022-11-02T14:57:07.400Z,80.01
2022-11-02T14:59:37.962Z,79.53
2022-11-02T15:02:40.484Z,79.75
2022-11-02T15:05:39.712Z,79.44
2022-11-02T15:08:09.137Z,80.57
2022-11-02T15:10:39.760Z,81.17
2022-11-02T15:13:18.481Z,81.74
2022-11-02T15:15:46.563Z,82.60
2022-11-02T15:18:31.184Z,82.99
2022-11-02T15:21:12.883Z,84.10
2022-11-02T15:24:15.592Z,84.00
2022-11-02T15:26:53.583Z,84.14
2022-11-02T15:29:31.253Z,83.98
2022-11-02T15:31:59.933Z,84.74
2022-11-02T15:34:57.159Z,85.77
2022-11-02T15:37:28.767Z,86.43
2022-11-02T15:40:04.450Z,86.82
2022-11-02T15:42:43.377Z,87.23
2022-11-02T15:45:48.790Z,87.73
2022-11-02T15:48:53.427Z,88.06
2022-11-02T15:51:38.562Z,88.67
2022-11-02T15:54:26.490Z,89.11
2022-11-02T15:57:20.775Z,89.84
2022-11-02T16:00:10.495Z,90.27
2022-11-02T16:02:40.280Z,91.01
2022-11-02T16:05:07.504Z,91.78
2022-11-02T16:07:50.152Z,92.26
2022-11-02T16:10:27.209Z,92.74
2022-11-02T16:13:12.801Z,93.52
2022-11-02T16:15:42.499Z,93.70
2022-11-02T16:18:24.271Z,94.37
2022-11-02T16:20:51.274Z,94.30
2022-11-02T16:23:26.938Z,95.30
2022-11-02T16:25:56.200Z,95.40
2022-11-02T16:28:26.829Z,97.31
2022-11-02T16:31:05.300Z,97.74
2022-11-02T16:33:51.903Z,98.79
2022-11-02T16:36:21.776Z,99.25
2022-11-02T16:38:56.048Z,98.25
2022-11-02T16:41:25.695Z,97.29
2022-11-02T16:43:53.006Z,96.93
2022-11-02T16:46:29.865Z,95.66
2022-11-02T16:49:13.036Z,94.84
2022-11-02T16:51:39.611Z,95.07
2022-11-02T16:54:30.876Z,95.66
2022-11-02T16:57:11.436Z,94.66
2022-11-02T16:59:49.260Z,94.46
2022-11-02T17:02:16.179Z,95.04
2022-11-02T17:04:45.362Z,94.46
2022-11-02T17:07:17.674Z,94.07
2022-11-02T17:09:44.248Z,94.68
2022-11-02T17:12:15.293Z,94.52
2022-11-02T17:14:44.652Z,94.51
2022-11-02T17:17:23.124Z,93.89
2022-11-02T17:20:09.719Z,94.46
2022-11-02T17:22:37.630Z,94.08
2022-11-02T17:25:07.182Z,94.21
2022-11-02T17:27:37.705Z,94.32
2022-11-02T17:30:30.504Z,94.13
2022-11-02T17:33:01.207Z,94.51
2022-11-02T17:35:28.072Z,94.02
2022-11-02T17:37:54.709Z,94.46
2022-11-02T17:40:22.118Z,95.10
2022-11-02T17:43:02.126Z,95.38
2022-11-02T17:45:33.793Z,95.70
2022-11-02T17:48:05.732Z,95.88
2022-11-02T17:50:34.699Z,96.05
2022-11-02T17:53:02.800Z,95.90
2022-11-02T17:55:33.144Z,95.44
2022-11-02T17:58:00.424Z,95.72
2022-11-02T18:00:28.631Z,95.64
2022-11-02T18:02:57.744Z,95.74
2022-11-02T18:05:35.371Z,96.32
2022-11-02T18:08:03.668Z,96.72
2022-11-02T18:10:38.017Z,96.87
2022-11-02T18:13:05.009Z,96.86
2022-11-02T18:15:33.186Z,97.15
2022-11-02T18:18:00.194Z,97.50
2022-11-02T18:20:28.405Z,97.96
2022-11-02T18:22:55.874Z,97.82
2022-11-02T18:25:23.248Z,97.59
2022-11-02T18:27:49.977Z,98.20
2022-11-02T18:30:18.008Z,98.41
2022-11-02T18:32:46.236Z,98.87
2022-11-02T18:35:18.688Z,98.84
2022-11-02T18:37:45.746Z,98.76
2022-11-02T18:40:17.787Z,98.88
2022-11-02T18:42:44.987Z,98.65
2022-11-02T18:45:13.846Z,99.02
2022-11-02T18:47:41.593Z,98.74
2022-11-02T18:50:08.724Z,98.74
2022-11-02T18:52:35.243Z,99.32
2022-11-02T18:55:03.827Z,99.09
2022-11-02T18:57:33.978Z,99.48
2022-11-02T19:00:02.780Z,99.42
2022-11-02T19:02:30.034Z,99.61
2022-11-02T19:04:56.961Z,99.82
2022-11-02T19:07:49.659Z,99.83
2022-11-02T19:10:16.237Z,99.79
2022-11-02T19:12:42.772Z,100.00
2022-11-02T19:15:09.720Z,100.00
2022-11-02T19:17:36.309Z,100.00
2022-11-02T19:20:03.225Z,100.00
2022-11-02T19:22:30.064Z,100.00
2022-11-02T19:24:56.679Z,100.00
2022-11-02T19:27:25.638Z,100.00
2022-11-02T19:29:52.562Z,100.00
2022-11-02T19:32:19.994Z,100.00
2022-11-02T19:34:47.174Z,100.00
2022-11-02T19:37:13.987Z,100.00
2022-11-02T19:39:41.144Z,100.00
2022-11-02T19:42:08.212Z,100.00
2022-11-02T19:44:41.283Z,100.00
2022-11-02T19:47:09.748Z,100.00
2022-11-02T19:49:36.708Z,100.00
2022-11-02T19:52:03.618Z,100.00
2022-11-02T19:54:30.259Z,100.00
2022-11-02T19:56:56.926Z,100.00
2022-11-02T19:59:23.918Z,100.00
2022-11-02T20:01:52.104Z,100.00
2022-11-02T20:04:18.793Z,100.00
2022-11-02T20:06:45.374Z,100.00
2022-11-02T20:09:18.204Z,100.00
2022-11-02T20:11:46.341Z,100.00
2022-11-02T20:14:16.977Z,100.00
2022-11-02T20:16:44.873Z,100.00
2022-11-02T20:19:11.748Z,100.00
2022-11-02T20:21:43.053Z,100.00
2022-11-02T20:24:11.247Z,100.00
2022-11-02T20:26:41.073Z,100.00
2022-11-02T20:29:10.842Z,100.00
2022-11-02T20:31:40.501Z,100.00
2022-11-02T20:34:08.503Z,100.00
2022-11-02T20:36:35.771Z,100.00
2022-11-02T20:39:04.833Z,100.00
2022-11-02T20:41:32.335Z,100.00
2022-11-02T20:43:59.015Z,100.00
2022-11-02T20:46:47.390Z,100.00
2022-11-02T20:49:22.249Z,100.00
2022-11-02T20:51:55.990Z,100.00
2022-11-02T20:54:22.974Z,100.00
2022-11-02T20:56:50.112Z,100.00
2022-11-02T20:59:17.364Z,100.00
2022-11-02T21:01:44.113Z,100.00
2022-11-02T21:04:14.031Z,100.00
2022-11-02T21:06:41.967Z,100.00
2022-11-02T21:09:11.994Z,100.00
2022-11-02T21:11:57.487Z,100.00
2022-11-02T21:14:24.641Z,100.00
2022-11-02T21:16:51.509Z,100.00
2022-11-02T21:19:18.096Z,100.00
2022-11-02T21:21:45.113Z,100.00
2022-11-02T21:24:12.030Z,100.00
2022-11-02T21:26:38.530Z,100.00
2022-11-02T21:29:05.125Z,100.00
2022-11-02T21:31:31.621Z,100.00
2022-11-02T21:33:58.130Z,100.00
2022-11-02T21:36:24.699Z,100.00
2022-11-02T21:38:51.245Z,100.00
2022-11-02T21:41:24.780Z,100.00
2022-11-02T21:43:52.355Z,100.00
2022-11-02T21:46:19.827Z,100.00
2022-11-02T21:48:46.689Z,100.00
2022-11-02T21:51:18.931Z,100.00
2022-11-02T21:53:46.845Z,100.00
2022-11-02T21:56:21.887Z,100.00
2022-11-02T21:58:48.795Z,100.00
2022-11-02T22:01:39.564Z,100.00
2022-11-02T22:04:07.549Z,100.00
2022-11-02T22:06:34.793Z,100.00
2022-11-02T22:09:01.771Z,100.00
2022-11-02T22:11:28.878Z,100.00
2022-11-02T22:13:59.963Z,100.00
2022-11-02T22:16:32.134Z,100.00
2022-11-02T22:19:00.507Z,100.00
2022-11-02T22:21:32.045Z,100.00
2022-11-02T22:23:59.278Z,100.00
2022-11-02T22:26:27.555Z,100.00
2022-11-02T22:28:54.279Z,100.00
2022-11-02T22:31:25.523Z,100.00
2022-11-02T22:33:54.751Z,100.00
2022-11-02T22:36:24.377Z,100.00
2022-11-02T22:38:53.504Z,100.00
2022-11-02T22:41:24.487Z,100.00
2022-11-02T22:43:53.507Z,100.00
2022-11-02T22:46:20.657Z,100.00
2022-11-02T22:48:47.358Z,100.00
2022-11-02T22:51:14.214Z,100.00
2022-11-02T22:53:40.923Z,100.00
2022-11-02T22:56:11.981Z,100.00
2022-11-02T22:58:40.317Z,100.00
2022-11-02T23:01:10.182Z,100.00
2022-11-02T23:03:37.177Z,100.00
2022-11-02T23:06:06.576Z,100.00
2022-11-02T23:08:35.296Z,100.00
2022-11-02T23:11:21.414Z,100.00
2022-11-02T23:13:47.874Z,100.00
2022-11-02T23:16:22.276Z,100.00
2022-11-02T23:19:27.291Z,100.00
2022-11-02T23:22:19.156Z,100.00
2022-11-02T23:25:06.842Z,100.00
2022-11-02T23:27:55.080Z,100.00
2022-11-02T23:30:40.824Z,100.00
2022-11-02T23:33:07.724Z,100.00
2022-11-02T23:35:53.231Z,100.00
2022-11-02T23:38:19.727Z,100.00
2022-11-02T23:40:46.326Z,100.00
2022-11-02T23:43:12.865Z,100.00
2022-11-02T23:45:39.402Z,100.00
2022-11-02T23:48:09.566Z,100.00
2022-11-02T23:50:54.665Z,100.00
2022-11-02T23:53:42.449Z,100.00
2022-11-02T23:56:35.190Z,100.00
2022-11-02T23:59:07.461Z,100.00
